sensor_id;sensor_type;location;lat;lon;timestamp;pressure;altitude;pressure_sealevel;temperature;humidity
5879;BME280;2965;42.640;23.370;2024-02-21T00:01:05;95155.03;;;5.17;100.00
5879;BME280;2965;42.640;23.370;2024-02-21T00:03:31;95149.84;;;5.17;100.00
5879;BME280;2965;42.640;23.370;2024-02-21T00:05:56;95153.41;;;5.16;100.00
5879;BME280;2965;42.640;23.370;2024-02-21T00:08:22;95150.66;;;5.18;100.00
5879;BME280;2965;42.640;23.370;2024-02-21T00:10:47;95144.38;;;5.20;100.00
5879;BME280;2965;42.640;23.370;2024-02-21T00:13:12;95135.94;;;5.18;100.00
5879;BME280;2965;42.640;23.370;2024-02-21T00:15:38;95140.84;;;5.21;100.00
5879;BME280;2965;42.640;23.370;2024-02-21T00:18:04;95141.13;;;5.18;100.00
5879;BME280;2965;42.640;23.370;2024-02-21T00:20:30;95139.47;;;5.17;100.00
5879;BME280;2965;42.640;23.370;2024-02-21T00:22:55;95133.34;;;5.18;100.00
5879;BME280;2965;42.640;23.370;2024-02-21T00:25:22;95135.94;;;5.18;100.00
5879;BME280;2965;42.640;23.370;2024-02-21T00:27:47;95135.94;;;5.18;100.00
5879;BME280;2965;42.640;23.370;2024-02-21T00:30:13;95137.84;;;5.16;100.00
5879;BME280;2965;42.640;23.370;2024-02-21T00:32:38;95138.50;;;5.09;100.00
5879;BME280;2965;42.640;23.370;2024-02-21T00:35:04;95139.59;;;5.06;100.00
5879;BME280;2965;42.640;23.370;2024-02-21T00:37:31;95138.91;;;5.04;100.00
5879;BME280;2965;42.640;23.370;2024-02-21T00:39:56;95135.91;;;4.99;100.00
5879;BME280;2965;42.640;23.370;2024-02-21T00:42:21;95136.59;;;5.01;100.00
5879;BME280;2965;42.640;23.370;2024-02-21T00:44:47;95135.91;;;4.99;100.00
5879;BME280;2965;42.640;23.370;2024-02-21T00:47:12;95127.97;;;4.91;100.00
5879;BME280;2965;42.640;23.370;2024-02-21T00:49:38;95133.16;;;4.91;100.00
5879;BME280;2965;42.640;23.370;2024-02-21T00:52:03;95140.78;;;4.83;100.00
5879;BME280;2965;42.640;23.370;2024-02-21T00:54:29;95133.44;;;4.88;100.00
5879;BME280;2965;42.640;23.370;2024-02-21T01:28:22;95099.34;;;5.02;100.00
5879;BME280;2965;42.640;23.370;2024-02-21T01:30:47;95096.34;;;4.97;100.00
5879;BME280;2965;42.640;23.370;2024-02-21T01:33:12;95097.41;;;4.85;100.00
5879;BME280;2965;42.640;23.370;2024-02-21T01:35:38;95095.22;;;4.90;100.00
5879;BME280;2965;42.640;23.370;2024-02-21T01:38:03;95099.56;;;4.79;100.00
5879;BME280;2965;42.640;23.370;2024-02-21T01:40:29;95095.31;;;4.69;100.00
5879;BME280;2965;42.640;23.370;2024-02-21T01:42:55;95091.22;;;4.66;100.00
5879;BME280;2965;42.640;23.370;2024-02-21T01:45:21;95086.72;;;4.68;100.00
5879;BME280;2965;42.640;23.370;2024-02-21T01:47:46;95079.09;;;4.76;100.00
5879;BME280;2965;42.640;23.370;2024-02-21T01:50:13;95084.28;;;4.76;100.00
5879;BME280;2965;42.640;23.370;2024-02-21T01:52:40;95091.97;;;4.88;100.00
5879;BME280;2965;42.640;23.370;2024-02-21T01:55:05;95084.19;;;4.88;100.00
5879;BME280;2965;42.640;23.370;2024-02-21T01:57:32;95085.66;;;4.90;100.00
5879;BME280;2965;42.640;23.370;2024-02-21T01:59:57;95087.84;;;4.95;100.00
5879;BME280;2965;42.640;23.370;2024-02-21T02:02:22;95086.91;;;4.96;100.00
5879;BME280;2965;42.640;23.370;2024-02-21T02:04:49;95084.03;;;4.99;100.00
5879;BME280;2965;42.640;23.370;2024-02-21T02:07:14;95079.97;;;5.06;100.00
5879;BME280;2965;42.640;23.370;2024-02-21T02:09:39;95088.16;;;5.01;100.00
5879;BME280;2965;42.640;23.370;2024-02-21T02:12:05;95073.00;;;5.06;100.00
5879;BME280;2965;42.640;23.370;2024-02-21T02:14:30;95085.16;;;5.16;100.00
5879;BME280;2965;42.640;23.370;2024-02-21T02:16:56;95082.00;;;5.12;100.00
5879;BME280;2965;42.640;23.370;2024-02-21T02:19:21;95084.34;;;5.15;100.00
5879;BME280;2965;42.640;23.370;2024-02-21T02:21:50;95078.59;;;5.12;100.00
5879;BME280;2965;42.640;23.370;2024-02-21T02:24:21;95086.78;;;5.17;100.00
5879;BME280;2965;42.640;23.370;2024-02-21T02:26:47;95087.06;;;5.23;100.00
5879;BME280;2965;42.640;23.370;2024-02-21T02:29:12;95084.47;;;5.23;100.00
5879;BME280;2965;42.640;23.370;2024-02-21T02:31:38;95072.72;;;5.19;100.00
5879;BME280;2965;42.640;23.370;2024-02-21T02:34:03;95078.31;;;5.24;100.00
5879;BME280;2965;42.640;23.370;2024-02-21T02:36:32;95072.16;;;5.25;100.00
5879;BME280;2965;42.640;23.370;2024-02-21T02:38:58;95070.94;;;5.29;100.00
5879;BME280;2965;42.640;23.370;2024-02-21T03:12:25;95074.22;;;5.41;100.00
5879;BME280;2965;42.640;23.370;2024-02-21T03:14:53;95084.44;;;5.43;100.00
5879;BME280;2965;42.640;23.370;2024-02-21T03:17:18;95083.50;;;5.44;100.00
5879;BME280;2965;42.640;23.370;2024-02-21T03:19:44;95089.22;;;5.57;100.00
5879;BME280;2965;42.640;23.370;2024-02-21T03:22:09;95090.44;;;5.53;100.00
5879;BME280;2965;42.640;23.370;2024-02-21T03:24:34;95089.22;;;5.57;100.00
5879;BME280;2965;42.640;23.370;2024-02-21T03:27:00;95085.13;;;5.64;100.00
5879;BME280;2965;42.640;23.370;2024-02-21T03:29:26;95094.94;;;5.61;100.00
5879;BME280;2965;42.640;23.370;2024-02-21T03:31:51;95095.78;;;5.51;100.00
5879;BME280;2965;42.640;23.370;2024-02-21T03:34:17;95093.59;;;5.47;100.00
5879;BME280;2965;42.640;23.370;2024-02-21T03:36:42;95102.34;;;5.46;100.00
5879;BME280;2965;42.640;23.370;2024-02-21T03:39:08;95099.47;;;5.49;100.00
5879;BME280;2965;42.640;23.370;2024-02-21T03:41:35;95100.69;;;5.54;100.00
5879;BME280;2965;42.640;23.370;2024-02-21T03:44:00;95109.72;;;5.41;100.00
5879;BME280;2965;42.640;23.370;2024-02-21T03:46:27;95106.03;;;5.34;100.00
5879;BME280;2965;42.640;23.370;2024-02-21T03:48:52;95104.81;;;5.38;100.00
5879;BME280;2965;42.640;23.370;2024-02-21T03:51:17;95108.63;;;5.34;100.00
5879;BME280;2965;42.640;23.370;2024-02-21T03:53:43;95108.38;;;5.37;100.00
5879;BME280;2965;42.640;23.370;2024-02-21T03:56:08;95103.69;;;5.30;100.00
5879;BME280;2965;42.640;23.370;2024-02-21T03:58:34;95097.16;;;5.26;100.00
5879;BME280;2965;42.640;23.370;2024-02-21T04:01:03;95100.69;;;5.25;100.00
5879;BME280;2965;42.640;23.370;2024-02-21T04:03:29;95104.53;;;5.31;100.00
5879;BME280;2965;42.640;23.370;2024-02-21T04:05:54;95107.25;;;5.39;100.00
5879;BME280;2965;42.640;23.370;2024-02-21T04:08:20;95108.38;;;5.37;100.00
5879;BME280;2965;42.640;23.370;2024-02-21T04:10:45;95101.13;;;5.50;100.00
5879;BME280;2965;42.640;23.370;2024-02-21T04:13:11;95105.09;;;5.54;100.00
5879;BME280;2965;42.640;23.370;2024-02-21T04:15:36;95102.06;;;5.49;100.00
5879;BME280;2965;42.640;23.370;2024-02-21T04:18:02;95102.91;;;5.49;100.00
5879;BME280;2965;42.640;23.370;2024-02-21T04:20:28;95106.56;;;5.47;100.00
5879;BME280;2965;42.640;23.370;2024-02-21T04:22:54;95098.00;;;5.37;100.00
5879;BME280;2965;42.640;23.370;2024-02-21T04:25:20;95102.06;;;5.39;100.00
5879;BME280;2965;42.640;23.370;2024-02-21T04:27:46;95095.00;;;5.31;100.00
5879;BME280;2965;42.640;23.370;2024-02-21T04:30:11;95099.88;;;5.35;100.00
5879;BME280;2965;42.640;23.370;2024-02-21T04:32:37;95102.47;;;5.35;100.00
5879;BME280;2965;42.640;23.370;2024-02-21T04:35:03;95096.88;;;5.39;100.00
5879;BME280;2965;42.640;23.370;2024-02-21T04:37:28;95097.72;;;5.20;100.00
5879;BME280;2965;42.640;23.370;2024-02-21T04:39:53;95093.34;;;5.11;100.00
5879;BME280;2965;42.640;23.370;2024-02-21T04:42:19;95093.88;;;5.05;100.00
5879;BME280;2965;42.640;23.370;2024-02-21T04:44:45;95094.00;;;4.94;100.00
5879;BME280;2965;42.640;23.370;2024-02-21T04:47:10;95108.03;;;4.91;100.00
5879;BME280;2965;42.640;23.370;2024-02-21T04:49:35;95094.13;;;4.83;100.00
5879;BME280;2965;42.640;23.370;2024-02-21T04:52:01;95099.56;;;4.79;100.00
5879;BME280;2965;42.640;23.370;2024-02-21T04:54:27;95096.59;;;4.84;100.00
5879;BME280;2965;42.640;23.370;2024-02-21T04:56:52;95097.72;;;5.01;100.00
5879;BME280;2965;42.640;23.370;2024-02-21T04:59:18;95100.16;;;5.12;100.00
5879;BME280;2965;42.640;23.370;2024-02-21T05:01:43;95094.44;;;5.18;100.00
5879;BME280;2965;42.640;23.370;2024-02-21T05:04:09;95104.81;;;5.28;100.00
5879;BME280;2965;42.640;23.370;2024-02-21T05:06:41;95095.38;;;5.37;100.00
5879;BME280;2965;42.640;23.370;2024-02-21T05:09:09;95102.34;;;5.46;100.00
5879;BME280;2965;42.640;23.370;2024-02-21T05:11:35;95106.72;;;5.55;100.00
5879;BME280;2965;42.640;23.370;2024-02-21T05:14:01;95100.44;;;5.28;100.00
5879;BME280;2965;42.640;23.370;2024-02-21T05:16:26;95115.19;;;5.18;100.00
5879;BME280;2965;42.640;23.370;2024-02-21T05:18:52;95119.28;;;5.30;100.00
5879;BME280;2965;42.640;23.370;2024-02-21T05:21:17;95116.97;;;5.27;100.00
5879;BME280;2965;42.640;23.370;2024-02-21T05:23:42;95120.63;;;5.35;100.00
5879;BME280;2965;42.640;23.370;2024-02-21T05:26:09;95112.44;;;5.29;100.00
5879;BME280;2965;42.640;23.370;2024-02-21T05:28:34;95122.28;;;5.36;100.00
5879;BME280;2965;42.640;23.370;2024-02-21T05:31:00;95119.16;;;5.32;100.00
5879;BME280;2965;42.640;23.370;2024-02-21T05:33:26;95114.38;;;5.27;100.00
5879;BME280;2965;42.640;23.370;2024-02-21T05:35:51;95131.00;;;5.35;100.00
5879;BME280;2965;42.640;23.370;2024-02-21T05:38:17;95127.47;;;5.45;100.00
5879;BME280;2965;42.640;23.370;2024-02-21T05:40:44;95122.81;;;5.49;100.00
5879;BME280;2965;42.640;23.370;2024-02-21T05:43:09;95123.91;;;5.56;100.00
5879;BME280;2965;42.640;23.370;2024-02-21T05:45:35;95125.94;;;5.62;100.00
5879;BME280;2965;42.640;23.370;2024-02-21T05:48:00;95123.09;;;5.65;100.00
5879;BME280;2965;42.640;23.370;2024-02-21T05:50:26;95130.47;;;5.70;100.00
5879;BME280;2965;42.640;23.370;2024-02-21T05:52:55;95125.84;;;5.64;100.00
5879;BME280;2965;42.640;23.370;2024-02-21T05:55:21;95131.03;;;5.64;100.00
5879;BME280;2965;42.640;23.370;2024-02-21T05:57:46;95135.22;;;5.74;100.00
5879;BME280;2965;42.640;23.370;2024-02-21T06:00:13;95134.84;;;5.69;100.00
5879;BME280;2965;42.640;23.370;2024-02-21T06:02:38;95135.38;;;5.73;100.00
5879;BME280;2965;42.640;23.370;2024-02-21T06:05:05;95135.38;;;5.73;100.00
5879;BME280;2965;42.640;23.370;2024-02-21T06:07:33;95141.66;;;5.70;100.00
5879;BME280;2965;42.640;23.370;2024-02-21T06:09:59;95140.72;;;5.71;100.00
5879;BME280;2965;42.640;23.370;2024-02-21T06:12:25;95145.75;;;5.73;100.00
5879;BME280;2965;42.640;23.370;2024-02-21T06:14:52;95145.75;;;5.73;100.00
5879;BME280;2965;42.640;23.370;2024-02-21T06:17:17;95154.22;;;5.85;100.00
5879;BME280;2965;42.640;23.370;2024-02-21T06:19:43;95155.88;;;5.66;100.00
5879;BME280;2965;42.640;23.370;2024-02-21T06:22:09;95157.25;;;5.80;100.00
5879;BME280;2965;42.640;23.370;2024-02-21T06:24:35;95146.84;;;5.90;100.00
5879;BME280;2965;42.640;23.370;2024-02-21T06:27:05;95153.69;;;6.00;100.00
5879;BME280;2965;42.640;23.370;2024-02-21T06:29:33;95164.88;;;6.01;100.00
5879;BME280;2965;42.640;23.370;2024-02-21T06:31:59;95170.91;;;6.11;100.00
5879;BME280;2965;42.640;23.370;2024-02-21T06:34:24;95174.72;;;6.07;100.00
5879;BME280;2965;42.640;23.370;2024-02-21T06:36:50;95169.25;;;6.20;100.00
5879;BME280;2965;42.640;23.370;2024-02-21T06:39:16;95166.72;;;6.38;100.00
5879;BME280;2965;42.640;23.370;2024-02-21T06:41:42;95162.03;;;6.51;100.00
5879;BME280;2965;42.640;23.370;2024-02-21T06:44:07;95164.75;;;6.49;100.00
5879;BME280;2965;42.640;23.370;2024-02-21T06:46:33;95179.03;;;6.36;100.00
5879;BME280;2965;42.640;23.370;2024-02-21T06:48:59;95176.84;;;6.31;100.00
5879;BME280;2965;42.640;23.370;2024-02-21T06:51:25;95189.69;;;6.32;100.00
5879;BME280;2965;42.640;23.370;2024-02-21T06:53:51;95183.94;;;6.39;100.00
5879;BME280;2965;42.640;23.370;2024-02-21T06:56:16;95184.47;;;6.52;100.00
5879;BME280;2965;42.640;23.370;2024-02-21T06:58:42;95186.38;;;6.50;100.00
5879;BME280;2965;42.640;23.370;2024-02-21T07:01:07;95181.16;;;6.50;100.00
5879;BME280;2965;42.640;23.370;2024-02-21T07:03:33;95186.16;;;6.34;100.00
5879;BME280;2965;42.640;23.370;2024-02-21T07:05:59;95180.53;;;6.38;100.00
5879;BME280;2965;42.640;23.370;2024-02-21T07:08:24;95182.94;;;6.49;100.00
5879;BME280;2965;42.640;23.370;2024-02-21T07:10:49;95183.34;;;6.54;100.00
5879;BME280;2965;42.640;23.370;2024-02-21T07:13:15;95186.91;;;6.53;100.00
5879;BME280;2965;42.640;23.370;2024-02-21T07:15:41;95185.81;;;6.56;100.00
5879;BME280;2965;42.640;23.370;2024-02-21T07:18:07;95184.47;;;6.52;100.00
5879;BME280;2965;42.640;23.370;2024-02-21T07:20:32;95186.63;;;6.56;100.00
5879;BME280;2965;42.640;23.370;2024-02-21T07:23:06;95185.22;;;6.62;100.00
5879;BME280;2965;42.640;23.370;2024-02-21T07:25:32;95189.63;;;6.62;100.00
5879;BME280;2965;42.640;23.370;2024-02-21T07:27:57;95197.56;;;6.60;100.00
5879;BME280;2965;42.640;23.370;2024-02-21T07:30:23;95192.91;;;6.54;100.00
5879;BME280;2965;42.640;23.370;2024-02-21T07:32:51;95192.19;;;6.71;100.00
5879;BME280;2965;42.640;23.370;2024-02-21T07:35:17;95183.81;;;6.77;100.00
5879;BME280;2965;42.640;23.370;2024-02-21T07:37:43;95193.91;;;6.80;100.00
5879;BME280;2965;42.640;23.370;2024-02-21T07:40:15;95189.19;;;6.94;100.00
5879;BME280;2965;42.640;23.370;2024-02-21T07:42:41;95192.19;;;6.99;100.00
5879;BME280;2965;42.640;23.370;2024-02-21T07:45:07;95192.22;;;6.89;100.00
5879;BME280;2965;42.640;23.370;2024-02-21T07:47:33;95190.81;;;6.95;100.00
5879;BME280;2965;42.640;23.370;2024-02-21T07:49:59;95187.13;;;6.97;100.00
5879;BME280;2965;42.640;23.370;2024-02-21T07:52:24;95195.00;;;6.88;100.00
5879;BME280;2965;42.640;23.370;2024-02-21T07:54:50;95187.03;;;6.89;100.00
5879;BME280;2965;42.640;23.370;2024-02-21T07:57:15;95186.97;;;6.99;100.00
5879;BME280;2965;42.640;23.370;2024-02-21T07:59:41;95181.50;;;7.02;100.00
5879;BME280;2965;42.640;23.370;2024-02-21T08:02:07;95181.00;;;7.16;100.00
5879;BME280;2965;42.640;23.370;2024-02-21T08:04:32;95185.25;;;7.17;100.00
5879;BME280;2965;42.640;23.370;2024-02-21T08:06:58;95189.34;;;7.20;100.00
5879;BME280;2965;42.640;23.370;2024-02-21T08:09:28;95181.38;;;7.21;100.00
5879;BME280;2965;42.640;23.370;2024-02-21T08:11:54;95189.00;;;7.32;100.00
5879;BME280;2965;42.640;23.370;2024-02-21T08:14:21;95181.28;;;7.41;100.00
5879;BME280;2965;42.640;23.370;2024-02-21T08:16:47;95187.81;;;7.45;100.00
5879;BME280;2965;42.640;23.370;2024-02-21T08:19:12;95189.97;;;7.31;100.00
5879;BME280;2965;42.640;23.370;2024-02-21T08:21:38;95185.13;;;7.37;100.00
5879;BME280;2965;42.640;23.370;2024-02-21T08:24:04;95186.47;;;7.41;100.00
5879;BME280;2965;42.640;23.370;2024-02-21T08:26:29;95171.97;;;7.56;100.00
5879;BME280;2965;42.640;23.370;2024-02-21T08:28:59;95176.16;;;7.67;100.00
5879;BME280;2965;42.640;23.370;2024-02-21T08:31:26;95183.50;;;7.71;100.00
5879;BME280;2965;42.640;23.370;2024-02-21T08:33:59;95179.56;;;7.67;100.00
5879;BME280;2965;42.640;23.370;2024-02-21T08:36:32;95183.81;;;7.68;100.00
5879;BME280;2965;42.640;23.370;2024-02-21T08:38:58;95184.09;;;7.65;100.00
5879;BME280;2965;42.640;23.370;2024-02-21T08:41:24;95185.44;;;7.69;100.00
5879;BME280;2965;42.640;23.370;2024-02-21T08:43:54;95180.38;;;7.86;100.00
5879;BME280;2965;42.640;23.370;2024-02-21T08:46:20;95177.47;;;7.89;100.00
5879;BME280;2965;42.640;23.370;2024-02-21T08:48:46;95177.50;;;7.97;100.00
5879;BME280;2965;42.640;23.370;2024-02-21T08:51:12;95177.22;;;8.00;100.00
5879;BME280;2965;42.640;23.370;2024-02-21T08:53:38;95180.06;;;8.06;100.00
5879;BME280;2965;42.640;23.370;2024-02-21T08:56:04;95173.75;;;8.17;100.00
5879;BME280;2965;42.640;23.370;2024-02-21T08:58:29;95174.38;;;8.11;100.00
5879;BME280;2965;42.640;23.370;2024-02-21T09:00:55;95178.34;;;8.23;100.00
5879;BME280;2965;42.640;23.370;2024-02-21T09:03:20;95179.09;;;8.33;100.00
5879;BME280;2965;42.640;23.370;2024-02-21T09:05:46;95179.84;;;8.44;100.00
5879;BME280;2965;42.640;23.370;2024-02-21T09:08:12;95177.13;;;8.35;100.00
5879;BME280;2965;42.640;23.370;2024-02-21T09:10:39;95176.00;;;8.56;100.00
5879;BME280;2965;42.640;23.370;2024-02-21T09:13:05;95178.31;;;8.59;100.00
5879;BME280;2965;42.640;23.370;2024-02-21T09:15:31;95180.72;;;8.34;100.00
5879;BME280;2965;42.640;23.370;2024-02-21T09:17:57;95183.34;;;8.34;100.00
5879;BME280;2965;42.640;23.370;2024-02-21T09:20:22;95184.47;;;8.58;100.00
5879;BME280;2965;42.640;23.370;2024-02-21T09:22:47;95184.00;;;8.63;100.00
5879;BME280;2965;42.640;23.370;2024-02-21T09:25:13;95191.03;;;8.62;100.00
5879;BME280;2965;42.640;23.370;2024-02-21T09:27:38;95176.00;;;8.56;100.00
5879;BME280;2965;42.640;23.370;2024-02-21T09:30:05;95178.91;;;8.53;100.00
5879;BME280;2965;42.640;23.370;2024-02-21T09:32:31;95175.41;;;8.70;100.00
5879;BME280;2965;42.640;23.370;2024-02-21T09:34:58;95180.00;;;8.76;100.00
5879;BME280;2965;42.640;23.370;2024-02-21T09:37:23;95174.78;;;8.76;100.00
5879;BME280;2965;42.640;23.370;2024-02-21T09:39:49;95167.00;;;8.84;100.00
5879;BME280;2965;42.640;23.370;2024-02-21T09:42:20;95180.97;;;9.09;100.00
5879;BME280;2965;42.640;23.370;2024-02-21T09:44:46;95170.31;;;9.03;100.00
5879;BME280;2965;42.640;23.370;2024-02-21T09:47:19;95178.50;;;9.00;100.00
5879;BME280;2965;42.640;23.370;2024-02-21T09:49:47;95178.63;;;8.90;100.00
5879;BME280;2965;42.640;23.370;2024-02-21T09:52:15;95180.59;;;8.96;100.00
5879;BME280;2965;42.640;23.370;2024-02-21T09:54:41;95175.09;;;9.16;100.00
5879;BME280;2965;42.640;23.370;2024-02-21T09:57:10;95169.88;;;9.16;100.00
5879;BME280;2965;42.640;23.370;2024-02-21T09:59:35;95171.34;;;9.10;100.00
5879;BME280;2965;42.640;23.370;2024-02-21T10:02:01;95168.13;;;9.24;100.00
5879;BME280;2965;42.640;23.370;2024-02-21T10:04:27;95174.66;;;9.28;100.00
5879;BME280;2965;42.640;23.370;2024-02-21T10:06:53;95179.88;;;9.28;100.00
5879;BME280;2965;42.640;23.370;2024-02-21T10:09:26;95174.66;;;9.28;100.00
5879;BME280;2965;42.640;23.370;2024-02-21T10:11:56;95179.25;;;9.26;100.00
5879;BME280;2965;42.640;23.370;2024-02-21T10:14:32;95163.41;;;9.28;100.00
5879;BME280;2965;42.640;23.370;2024-02-21T10:16:57;95163.25;;;9.21;100.00
5879;BME280;2965;42.640;23.370;2024-02-21T10:19:27;95164.09;;;9.46;100.00
5879;BME280;2965;42.640;23.370;2024-02-21T10:22:00;95160.84;;;9.52;100.00
5879;BME280;2965;42.640;23.370;2024-02-21T10:24:26;95156.44;;;9.69;100.00
5879;BME280;2965;42.640;23.370;2024-02-21T10:27:03;95156.13;;;9.72;100.00
5879;BME280;2965;42.640;23.370;2024-02-21T10:29:32;95156.28;;;9.54;100.00
5879;BME280;2965;42.640;23.370;2024-02-21T10:32:17;95146.31;;;9.58;100.00
5879;BME280;2965;42.640;23.370;2024-02-21T10:34:43;95142.09;;;9.57;100.00
5879;BME280;2965;42.640;23.370;2024-02-21T10:37:10;95139.00;;;9.62;100.00
5879;BME280;2965;42.640;23.370;2024-02-21T10:39:40;95128.56;;;9.70;100.00
5879;BME280;2965;42.640;23.370;2024-02-21T10:42:06;95118.94;;;9.78;100.00
5879;BME280;2965;42.640;23.370;2024-02-21T10:44:35;95118.56;;;9.81;100.00
5879;BME280;2965;42.640;23.370;2024-02-21T10:47:11;95113.69;;;9.78;100.00
5879;BME280;2965;42.640;23.370;2024-02-21T10:49:44;95111.38;;;10.00;100.00
5879;BME280;2965;42.640;23.370;2024-02-21T10:55:02;95094.38;;;10.20;100.00
5879;BME280;2965;42.640;23.370;2024-02-21T10:57:29;95100.59;;;10.27;96.87
5879;BME280;2965;42.640;23.370;2024-02-21T10:59:55;95099.28;;;10.31;93.15
5879;BME280;2965;42.640;23.370;2024-02-21T11:02:21;95090.47;;;10.24;93.23
5879;BME280;2965;42.640;23.370;2024-02-21T11:04:47;95088.44;;;10.51;90.30
5879;BME280;2965;42.640;23.370;2024-02-21T11:07:14;95087.75;;;10.57;87.95
5879;BME280;2965;42.640;23.370;2024-02-21T11:09:50;95081.66;;;10.65;87.42
5879;BME280;2965;42.640;23.370;2024-02-21T11:12:20;95075.06;;;10.85;83.72
5879;BME280;2965;42.640;23.370;2024-02-21T11:14:46;95081.09;;;10.85;75.99
5879;BME280;2965;42.640;23.370;2024-02-21T11:17:16;95075.50;;;10.89;78.39
5879;BME280;2965;42.640;23.370;2024-02-21T11:19:42;95072.84;;;10.97;78.14
5879;BME280;2965;42.640;23.370;2024-02-21T11:22:18;95067.44;;;11.29;78.32
5879;BME280;2965;42.640;23.370;2024-02-21T11:24:44;95077.97;;;11.82;76.15
5879;BME280;2965;42.640;23.370;2024-02-21T11:27:12;95070.06;;;12.13;70.46
5879;BME280;2965;42.640;23.370;2024-02-21T11:29:49;95066.88;;;12.18;72.44
5879;BME280;2965;42.640;23.370;2024-02-21T11:32:19;95064.59;;;12.00;76.30
5879;BME280;2965;42.640;23.370;2024-02-21T11:37:20;95055.28;;;12.12;70.73
5879;BME280;2965;42.640;23.370;2024-02-21T11:39:45;95055.31;;;12.27;70.40
5879;BME280;2965;42.640;23.370;2024-02-21T11:42:11;95058.19;;;11.79;69.43
5879;BME280;2965;42.640;23.370;2024-02-21T11:44:38;95048.34;;;11.44;70.52
5879;BME280;2965;42.640;23.370;2024-02-21T11:47:05;95053.56;;;11.21;73.88
5879;BME280;2965;42.640;23.370;2024-02-21T11:49:35;95042.25;;;10.97;75.79
5879;BME280;2965;42.640;23.370;2024-02-21T11:52:02;95041.28;;;10.67;77.96
5879;BME280;2965;42.640;23.370;2024-02-21T11:54:30;95038.91;;;10.49;81.21
5879;BME280;2965;42.640;23.370;2024-02-21T11:56:55;95041.94;;;10.61;81.34
5879;BME280;2965;42.640;23.370;2024-02-21T11:59:20;95039.38;;;10.53;80.40
5879;BME280;2965;42.640;23.370;2024-02-21T12:01:46;95034.53;;;10.33;79.92
5879;BME280;2965;42.640;23.370;2024-02-21T12:04:12;95042.41;;;10.09;79.58
5879;BME280;2965;42.640;23.370;2024-02-21T12:06:38;95035.25;;;10.03;82.10
5879;BME280;2965;42.640;23.370;2024-02-21T12:09:07;95043.91;;;10.03;81.60
5879;BME280;2965;42.640;23.370;2024-02-21T12:11:34;95034.31;;;9.88;81.63
5879;BME280;2965;42.640;23.370;2024-02-21T12:14:03;95034.16;;;9.81;84.53
5879;BME280;2965;42.640;23.370;2024-02-21T12:16:33;95030.09;;;9.78;88.17
5879;BME280;2965;42.640;23.370;2024-02-21T12:18:59;95029.91;;;9.72;85.72
5879;BME280;2965;42.640;23.370;2024-02-21T12:21:33;95025.50;;;9.72;85.47
5879;BME280;2965;42.640;23.370;2024-02-21T12:24:31;95024.88;;;9.62;87.89
5879;BME280;2965;42.640;23.370;2024-02-21T12:26:57;95024.88;;;9.62;87.80
5879;BME280;2965;42.640;23.370;2024-02-21T12:29:24;95028.47;;;9.61;87.05
5879;BME280;2965;42.640;23.370;2024-02-21T12:31:50;95019.66;;;9.62;87.49
5879;BME280;2965;42.640;23.370;2024-02-21T12:34:15;95022.25;;;9.62;89.18
5879;BME280;2965;42.640;23.370;2024-02-21T12:36:43;95014.94;;;9.49;94.26
5879;BME280;2965;42.640;23.370;2024-02-21T12:39:09;95014.13;;;9.49;95.73
5879;BME280;2965;42.640;23.370;2024-02-21T12:41:35;95016.22;;;9.37;90.40
5879;BME280;2965;42.640;23.370;2024-02-21T12:44:06;95021.31;;;9.30;88.63
5879;BME280;2965;42.640;23.370;2024-02-21T12:46:35;95024.88;;;9.29;88.93
5879;BME280;2965;42.640;23.370;2024-02-21T12:49:02;95019.31;;;9.24;90.05
5879;BME280;2965;42.640;23.370;2024-02-21T12:51:28;95018.84;;;9.29;90.68
5879;BME280;2965;42.640;23.370;2024-02-21T12:53:53;95013.47;;;9.22;93.34
5879;BME280;2965;42.640;23.370;2024-02-21T12:56:19;95014.78;;;9.26;89.81
5879;BME280;2965;42.640;23.370;2024-02-21T12:58:45;95015.09;;;9.31;89.52
5879;BME280;2965;42.640;23.370;2024-02-21T13:01:10;95009.53;;;9.43;100.00
5879;BME280;2965;42.640;23.370;2024-02-21T13:03:36;94998.44;;;9.65;98.44
5879;BME280;2965;42.640;23.370;2024-02-21T13:06:01;95000.38;;;9.63;98.73
5879;BME280;2965;42.640;23.370;2024-02-21T13:08:27;95000.84;;;9.83;100.00
5879;BME280;2965;42.640;23.370;2024-02-21T13:10:52;94994.97;;;9.81;90.11
5879;BME280;2965;42.640;23.370;2024-02-21T13:13:18;94989.81;;;10.12;97.13
5879;BME280;2965;42.640;23.370;2024-02-21T13:15:44;94990.28;;;10.16;88.71
5879;BME280;2965;42.640;23.370;2024-02-21T13:18:09;94981.03;;;10.44;86.58
5879;BME280;2965;42.640;23.370;2024-02-21T13:20:36;94983.63;;;10.52;94.50
5879;BME280;2965;42.640;23.370;2024-02-21T13:23:02;94976.81;;;10.43;96.20
5879;BME280;2965;42.640;23.370;2024-02-21T13:25:28;94985.19;;;10.22;94.79
5879;BME280;2965;42.640;23.370;2024-02-21T13:27:53;94980.75;;;9.92;96.92
5879;BME280;2965;42.640;23.370;2024-02-21T13:30:19;94985.63;;;9.95;99.92
5879;BME280;2965;42.640;23.370;2024-02-21T13:32:44;94988.88;;;10.05;100.00
5879;BME280;2965;42.640;23.370;2024-02-21T13:35:14;94975.41;;;10.16;100.00
5879;BME280;2965;42.640;23.370;2024-02-21T13:37:40;94975.13;;;10.03;100.00
5879;BME280;2965;42.640;23.370;2024-02-21T13:40:06;94979.06;;;9.99;100.00
5879;BME280;2965;42.640;23.370;2024-02-21T13:42:34;94989.47;;;10.15;100.00
5879;BME280;2965;42.640;23.370;2024-02-21T13:44:59;94978.59;;;9.87;100.00
5879;BME280;2965;42.640;23.370;2024-02-21T13:47:25;94980.41;;;9.86;100.00
5879;BME280;2965;42.640;23.370;2024-02-21T13:49:50;94983.81;;;9.87;100.00
5879;BME280;2965;42.640;23.370;2024-02-21T13:52:15;94976.88;;;9.55;100.00
5879;BME280;2965;42.640;23.370;2024-02-21T13:54:42;94985.06;;;9.27;100.00
5879;BME280;2965;42.640;23.370;2024-02-21T13:57:07;94985.38;;;9.16;100.00
5879;BME280;2965;42.640;23.370;2024-02-21T13:59:33;94981.16;;;8.99;100.00
5879;BME280;2965;42.640;23.370;2024-02-21T14:01:59;94982.59;;;8.93;99.65
5879;BME280;2965;42.640;23.370;2024-02-21T14:04:24;94988.47;;;8.87;100.00
5879;BME280;2965;42.640;23.370;2024-02-21T14:06:50;94988.66;;;8.86;100.00
5879;BME280;2965;42.640;23.370;2024-02-21T14:09:16;94976.22;;;8.79;100.00
5879;BME280;2965;42.640;23.370;2024-02-21T14:11:41;94983.88;;;8.65;100.00
5879;BME280;2965;42.640;23.370;2024-02-21T14:14:07;94982.06;;;8.65;100.00
5879;BME280;2965;42.640;23.370;2024-02-21T14:16:33;94980.13;;;8.59;100.00